createdAt,value
2023-03-10T00:08:30.819Z,68.26
2023-03-10T00:18:56.752Z,68.92
2023-03-10T00:29:22.251Z,70.47
2023-03-10T00:39:51.375Z,71.72
2023-03-10T00:50:17.459Z,72.08
2023-03-10T01:00:45.032Z,72.54
2023-03-10T01:11:12.574Z,72.81
2023-03-10T01:21:39.962Z,72.80
2023-03-10T01:32:06.307Z,72.89
2023-03-10T01:42:33.079Z,72.19
2023-03-10T01:52:59.049Z,71.68
2023-03-10T02:03:27.384Z,71.37
2023-03-10T02:13:53.420Z,71.46
2023-03-10T02:24:28.607Z,71.13
2023-03-10T02:34:54.419Z,70.74
2023-03-10T02:45:20.468Z,70.57
2023-03-10T02:55:46.472Z,70.48
2023-03-10T03:06:12.952Z,70.52
2023-03-10T03:16:38.858Z,70.60
2023-03-10T03:27:04.740Z,70.05
2023-03-10T03:37:30.548Z,69.39
2023-03-10T03:47:56.764Z,68.92
2023-03-10T03:58:22.754Z,68.76
2023-03-10T04:08:49.918Z,68.03
2023-03-10T04:19:15.670Z,67.66
2023-03-10T04:29:41.623Z,67.55
2023-03-10T04:40:09.759Z,67.04
2023-03-10T04:50:35.418Z,67.25
2023-03-10T05:01:03.592Z,67.23
2023-03-10T05:11:29.769Z,67.15
2023-03-10T05:21:55.783Z,66.89
2023-03-10T05:32:21.370Z,66.77
2023-03-10T05:42:47.164Z,66.95
2023-03-10T05:53:13.034Z,66.65
2023-03-10T06:03:39.533Z,66.70
2023-03-10T06:14:05.567Z,66.60
2023-03-10T06:24:32.143Z,67.01
2023-03-10T06:34:59.633Z,67.39
2023-03-10T06:45:25.551Z,67.95
2023-03-10T06:56:01.594Z,68.93
2023-03-10T07:06:29.026Z,69.40
2023-03-10T07:16:55.086Z,69.04
2023-03-10T07:27:20.679Z,68.87
2023-03-10T07:37:46.261Z,68.77
2023-03-10T07:48:12.497Z,67.17
2023-03-10T07:58:39.574Z,65.50
2023-03-10T08:09:05.826Z,63.59
2023-03-10T08:19:31.453Z,62.44
2023-03-10T08:29:57.069Z,61.08
2023-03-10T08:40:22.956Z,59.89
2023-03-10T08:50:49.135Z,59.46
2023-03-10T09:01:16.393Z,58.46
2023-03-10T09:11:43.136Z,58.31
2023-03-10T09:22:09.106Z,58.45
2023-03-10T09:32:34.952Z,59.04
2023-03-10T09:43:04.194Z,58.78
2023-03-10T09:53:52.153Z,58.08
2023-03-10T10:04:23.039Z,57.55
2023-03-10T10:14:57.152Z,56.73
2023-03-10T10:25:26.170Z,56.47
2023-03-10T10:36:03.392Z,56.19
2023-03-10T10:46:30.936Z,56.10
2023-03-10T10:56:58.353Z,56.24
2023-03-10T11:07:28.293Z,55.82
2023-03-10T11:17:58.530Z,55.71
2023-03-10T11:28:42.030Z,54.41
2023-03-10T11:39:20.423Z,54.02
2023-03-10T11:49:52.773Z,52.14
2023-03-10T12:00:26.046Z,51.62
2023-03-10T12:10:53.930Z,51.35
2023-03-10T12:21:19.311Z,51.69
2023-03-10T12:31:50.301Z,50.98
2023-03-10T12:42:35.081Z,50.32
2023-03-10T12:53:16.184Z,50.82
2023-03-10T13:03:48.389Z,51.46
2023-03-10T13:14:17.711Z,52.00
2023-03-10T13:24:43.376Z,50.77
2023-03-10T13:35:25.354Z,50.24
2023-03-10T13:45:57.316Z,50.09
2023-03-10T13:56:26.512Z,50.30
2023-03-10T14:07:10.294Z,50.66
2023-03-10T14:17:37.777Z,51.32
2023-03-10T14:38:39.554Z,52.58
2023-03-10T14:49:07.019Z,52.77
2023-03-10T14:59:33.205Z,52.95
2023-03-10T15:10:10.565Z,53.21
2023-03-10T15:20:37.223Z,53.21
2023-03-10T15:31:03.089Z,52.81
2023-03-10T15:41:28.745Z,53.19
2023-03-10T15:51:54.592Z,53.54
2023-03-10T16:02:20.525Z,54.11
2023-03-10T16:12:46.362Z,54.52
2023-03-10T16:23:12.181Z,54.94
2023-03-10T16:33:38.152Z,55.34
2023-03-10T16:44:06.683Z,55.79
2023-03-10T16:54:32.053Z,55.80
2023-03-10T17:04:57.920Z,55.73
2023-03-10T17:15:23.686Z,56.33
2023-03-10T17:25:49.165Z,56.85
2023-03-10T17:36:16.913Z,57.23
2023-03-10T17:46:42.847Z,57.42
2023-03-10T17:57:08.850Z,57.80
2023-03-10T18:07:35.122Z,58.02
2023-03-10T18:18:01.339Z,58.58
2023-03-10T18:28:27.122Z,59.30
2023-03-10T18:38:53.922Z,60.01
2023-03-10T18:49:19.491Z,60.67
2023-03-10T18:59:45.508Z,61.07
2023-03-10T19:10:15.628Z,61.39
2023-03-10T19:20:41.201Z,61.53
2023-03-10T19:31:11.516Z,61.76
2023-03-10T19:41:37.373Z,61.87
2023-03-10T19:52:03.922Z,61.95
2023-03-10T20:02:30.764Z,61.92
2023-03-10T20:12:57.455Z,61.98
2023-03-10T20:23:23.256Z,62.08
2023-03-10T20:33:48.884Z,62.29
2023-03-10T20:44:14.718Z,62.47
2023-03-10T20:54:40.050Z,61.81
2023-03-10T21:05:06.486Z,61.49
2023-03-10T21:15:33.047Z,61.45
2023-03-10T21:25:59.681Z,61.60
2023-03-10T21:36:26.717Z,61.73
2023-03-10T21:46:52.649Z,61.73
2023-03-10T21:57:18.947Z,61.57
2023-03-10T22:07:44.659Z,61.51
2023-03-10T22:18:10.212Z,61.39
2023-03-10T22:28:36.065Z,61.05
2023-03-10T22:39:02.349Z,60.76
2023-03-10T22:49:27.901Z,60.76
2023-03-10T22:59:53.352Z,60.64
2023-03-10T23:10:22.564Z,60.85
2023-03-10T23:20:50.183Z,61.03
2023-03-10T23:31:17.170Z,61.17
2023-03-10T23:41:51.651Z,61.40
2023-03-10T23:52:17.361Z,61.46
